sensor_id;sensor_type;location;lat;lon;timestamp;temperature;humidity
33827;DHT22;20128;45.582;5.298;2023-04-24T00:01:47;14.60;82.80
33827;DHT22;20128;45.582;5.298;2023-04-24T00:04:13;14.60;83.00
33827;DHT22;20128;45.582;5.298;2023-04-24T00:06:42;14.60;83.80
33827;DHT22;20128;45.582;5.298;2023-04-24T00:09:08;14.60;83.50
33827;DHT22;20128;45.582;5.298;2023-04-24T00:11:35;14.60;82.90
33827;DHT22;20128;45.582;5.298;2023-04-24T00:14:03;14.50;82.60
33827;DHT22;20128;45.582;5.298;2023-04-24T00:16:28;14.50;82.60
33827;DHT22;20128;45.582;5.298;2023-04-24T00:18:54;14.40;82.80
33827;DHT22;20128;45.582;5.298;2023-04-24T00:21:20;14.40;83.10
33827;DHT22;20128;45.582;5.298;2023-04-24T00:23:47;14.30;83.10
33827;DHT22;20128;45.582;5.298;2023-04-24T00:26:13;14.40;83.30
33827;DHT22;20128;45.582;5.298;2023-04-24T00:28:39;14.40;83.20
33827;DHT22;20128;45.582;5.298;2023-04-24T00:31:05;14.40;83.30
33827;DHT22;20128;45.582;5.298;2023-04-24T00:33:30;14.40;83.50
33827;DHT22;20128;45.582;5.298;2023-04-24T00:35:56;14.40;83.40
33827;DHT22;20128;45.582;5.298;2023-04-24T00:38:22;14.30;83.50
33827;DHT22;20128;45.582;5.298;2023-04-24T00:40:48;14.40;83.90
33827;DHT22;20128;45.582;5.298;2023-04-24T00:43:15;14.30;83.40
33827;DHT22;20128;45.582;5.298;2023-04-24T00:45:41;14.30;83.30
33827;DHT22;20128;45.582;5.298;2023-04-24T00:48:07;14.30;84.10
33827;DHT22;20128;45.582;5.298;2023-04-24T00:50:35;14.30;84.00
33827;DHT22;20128;45.582;5.298;2023-04-24T00:53:01;14.30;84.30
33827;DHT22;20128;45.582;5.298;2023-04-24T00:55:26;14.30;83.90
33827;DHT22;20128;45.582;5.298;2023-04-24T00:57:52;14.30;84.30
33827;DHT22;20128;45.582;5.298;2023-04-24T01:00:18;14.40;84.30
33827;DHT22;20128;45.582;5.298;2023-04-24T01:02:44;14.30;83.60
33827;DHT22;20128;45.582;5.298;2023-04-24T01:05:15;14.40;84.10
33827;DHT22;20128;45.582;5.298;2023-04-24T01:07:44;14.40;84.10
33827;DHT22;20128;45.582;5.298;2023-04-24T01:10:13;14.40;84.30
33827;DHT22;20128;45.582;5.298;2023-04-24T01:12:39;14.40;84.50
33827;DHT22;20128;45.582;5.298;2023-04-24T01:15:05;14.40;84.70
33827;DHT22;20128;45.582;5.298;2023-04-24T01:17:34;14.40;83.80
33827;DHT22;20128;45.582;5.298;2023-04-24T01:20:01;14.30;83.00
33827;DHT22;20128;45.582;5.298;2023-04-24T01:22:32;14.30;84.20
33827;DHT22;20128;45.582;5.298;2023-04-24T01:24:58;14.40;83.70
33827;DHT22;20128;45.582;5.298;2023-04-24T01:27:23;14.40;83.70
33827;DHT22;20128;45.582;5.298;2023-04-24T01:29:49;14.30;83.90
33827;DHT22;20128;45.582;5.298;2023-04-24T01:32:17;14.30;83.50
33827;DHT22;20128;45.582;5.298;2023-04-24T01:34:44;14.30;82.80
33827;DHT22;20128;45.582;5.298;2023-04-24T01:37:10;14.20;82.80
33827;DHT22;20128;45.582;5.298;2023-04-24T01:39:36;14.20;83.20
33827;DHT22;20128;45.582;5.298;2023-04-24T01:42:02;14.20;83.20
33827;DHT22;20128;45.582;5.298;2023-04-24T01:44:28;14.10;83.20
33827;DHT22;20128;45.582;5.298;2023-04-24T01:46:55;14.10;83.30
33827;DHT22;20128;45.582;5.298;2023-04-24T01:49:21;14.10;82.90
33827;DHT22;20128;45.582;5.298;2023-04-24T01:51:47;14.10;82.90
33827;DHT22;20128;45.582;5.298;2023-04-24T01:54:13;14.10;82.80
33827;DHT22;20128;45.582;5.298;2023-04-24T01:56:42;14.10;82.90
33827;DHT22;20128;45.582;5.298;2023-04-24T01:59:11;14.10;83.60
33827;DHT22;20128;45.582;5.298;2023-04-24T02:01:38;14.10;83.40
33827;DHT22;20128;45.582;5.298;2023-04-24T02:04:04;14.10;83.10
33827;DHT22;20128;45.582;5.298;2023-04-24T02:06:30;14.00;83.00
33827;DHT22;20128;45.582;5.298;2023-04-24T02:08:57;14.10;84.00
33827;DHT22;20128;45.582;5.298;2023-04-24T02:11:23;14.10;83.30
33827;DHT22;20128;45.582;5.298;2023-04-24T02:13:49;14.10;82.80
33827;DHT22;20128;45.582;5.298;2023-04-24T02:16:16;14.10;82.50
33827;DHT22;20128;45.582;5.298;2023-04-24T02:18:41;14.00;82.30
33827;DHT22;20128;45.582;5.298;2023-04-24T02:21:07;14.00;82.30
33827;DHT22;20128;45.582;5.298;2023-04-24T02:23:33;14.00;82.40
33827;DHT22;20128;45.582;5.298;2023-04-24T02:25:58;14.00;82.30
33827;DHT22;20128;45.582;5.298;2023-04-24T02:28:24;14.00;82.10
33827;DHT22;20128;45.582;5.298;2023-04-24T02:30:50;14.00;82.10
33827;DHT22;20128;45.582;5.298;2023-04-24T02:33:16;14.10;82.70
33827;DHT22;20128;45.582;5.298;2023-04-24T02:35:42;14.00;82.70
33827;DHT22;20128;45.582;5.298;2023-04-24T02:38:07;14.10;82.20
33827;DHT22;20128;45.582;5.298;2023-04-24T02:40:33;14.00;82.00
33827;DHT22;20128;45.582;5.298;2023-04-24T02:42:59;14.10;81.90
33827;DHT22;20128;45.582;5.298;2023-04-24T02:45:24;14.10;81.90
33827;DHT22;20128;45.582;5.298;2023-04-24T02:47:50;14.00;81.80
33827;DHT22;20128;45.582;5.298;2023-04-24T02:50:16;14.00;81.30
33827;DHT22;20128;45.582;5.298;2023-04-24T02:52:41;13.90;81.30
33827;DHT22;20128;45.582;5.298;2023-04-24T02:55:07;13.90;81.20
33827;DHT22;20128;45.582;5.298;2023-04-24T02:57:33;13.90;81.30
33827;DHT22;20128;45.582;5.298;2023-04-24T02:59:59;13.80;81.30
33827;DHT22;20128;45.582;5.298;2023-04-24T03:02:25;13.80;81.30
33827;DHT22;20128;45.582;5.298;2023-04-24T03:04:51;13.80;81.90
33827;DHT22;20128;45.582;5.298;2023-04-24T03:07:17;13.80;82.30
33827;DHT22;20128;45.582;5.298;2023-04-24T03:09:46;13.80;82.00
33827;DHT22;20128;45.582;5.298;2023-04-24T03:12:12;13.80;82.20
33827;DHT22;20128;45.582;5.298;2023-04-24T03:14:38;13.80;81.90
33827;DHT22;20128;45.582;5.298;2023-04-24T03:17:03;13.80;82.00
33827;DHT22;20128;45.582;5.298;2023-04-24T03:19:29;13.80;81.70
33827;DHT22;20128;45.582;5.298;2023-04-24T03:21:55;13.80;82.00
33827;DHT22;20128;45.582;5.298;2023-04-24T03:24:21;13.80;81.90
33827;DHT22;20128;45.582;5.298;2023-04-24T03:26:46;13.80;81.60
33827;DHT22;20128;45.582;5.298;2023-04-24T03:29:12;13.70;81.60
33827;DHT22;20128;45.582;5.298;2023-04-24T03:31:37;13.70;81.70
33827;DHT22;20128;45.582;5.298;2023-04-24T03:34:03;13.70;82.80
33827;DHT22;20128;45.582;5.298;2023-04-24T03:36:29;13.70;82.90
33827;DHT22;20128;45.582;5.298;2023-04-24T03:38:55;13.80;83.20
33827;DHT22;20128;45.582;5.298;2023-04-24T03:41:21;13.80;84.10
33827;DHT22;20128;45.582;5.298;2023-04-24T03:43:48;13.90;84.40
33827;DHT22;20128;45.582;5.298;2023-04-24T03:46:13;13.90;85.10
33827;DHT22;20128;45.582;5.298;2023-04-24T03:48:39;13.90;85.10
33827;DHT22;20128;45.582;5.298;2023-04-24T03:51:05;13.90;85.00
33827;DHT22;20128;45.582;5.298;2023-04-24T03:53:30;13.80;85.60
33827;DHT22;20128;45.582;5.298;2023-04-24T03:55:56;13.80;86.00
33827;DHT22;20128;45.582;5.298;2023-04-24T03:58:22;13.80;85.80
33827;DHT22;20128;45.582;5.298;2023-04-24T04:00:47;13.90;86.10
33827;DHT22;20128;45.582;5.298;2023-04-24T04:03:13;13.90;86.30
33827;DHT22;20128;45.582;5.298;2023-04-24T04:05:40;13.90;86.70
33827;DHT22;20128;45.582;5.298;2023-04-24T04:08:05;13.90;87.00
33827;DHT22;20128;45.582;5.298;2023-04-24T04:10:31;14.00;87.70
33827;DHT22;20128;45.582;5.298;2023-04-24T04:12:57;14.00;87.70
33827;DHT22;20128;45.582;5.298;2023-04-24T04:15:22;14.00;86.90
33827;DHT22;20128;45.582;5.298;2023-04-24T04:17:49;14.00;86.60
33827;DHT22;20128;45.582;5.298;2023-04-24T04:20:15;13.80;86.60
33827;DHT22;20128;45.582;5.298;2023-04-24T04:22:41;13.80;87.50
33827;DHT22;20128;45.582;5.298;2023-04-24T04:25:07;13.80;88.10
33827;DHT22;20128;45.582;5.298;2023-04-24T04:27:34;13.80;88.70
33827;DHT22;20128;45.582;5.298;2023-04-24T04:30:03;13.90;88.60
33827;DHT22;20128;45.582;5.298;2023-04-24T04:32:33;13.90;88.40
33827;DHT22;20128;45.582;5.298;2023-04-24T04:35:00;13.90;88.00
33827;DHT22;20128;45.582;5.298;2023-04-24T04:37:30;13.90;88.40
33827;DHT22;20128;45.582;5.298;2023-04-24T04:39:57;13.90;89.20
33827;DHT22;20128;45.582;5.298;2023-04-24T04:42:24;13.90;89.70
33827;DHT22;20128;45.582;5.298;2023-04-24T04:44:50;13.90;89.90
33827;DHT22;20128;45.582;5.298;2023-04-24T04:47:16;14.00;90.00
33827;DHT22;20128;45.582;5.298;2023-04-24T04:49:43;14.00;90.10
33827;DHT22;20128;45.582;5.298;2023-04-24T04:52:09;14.10;90.00
33827;DHT22;20128;45.582;5.298;2023-04-24T04:54:35;14.00;90.00
33827;DHT22;20128;45.582;5.298;2023-04-24T04:57:01;14.00;89.90
33827;DHT22;20128;45.582;5.298;2023-04-24T04:59:27;13.90;88.90
33827;DHT22;20128;45.582;5.298;2023-04-24T05:01:52;14.00;89.60
33827;DHT22;20128;45.582;5.298;2023-04-24T05:04:18;14.00;90.00
33827;DHT22;20128;45.582;5.298;2023-04-24T05:06:44;14.00;90.00
33827;DHT22;20128;45.582;5.298;2023-04-24T05:09:10;13.90;90.10
33827;DHT22;20128;45.582;5.298;2023-04-24T05:11:35;14.00;90.10
33827;DHT22;20128;45.582;5.298;2023-04-24T05:14:01;13.90;90.00
33827;DHT22;20128;45.582;5.298;2023-04-24T05:16:27;13.90;90.10
33827;DHT22;20128;45.582;5.298;2023-04-24T05:18:53;14.00;90.10
33827;DHT22;20128;45.582;5.298;2023-04-24T05:21:18;13.90;90.10
33827;DHT22;20128;45.582;5.298;2023-04-24T05:23:44;13.90;90.10
33827;DHT22;20128;45.582;5.298;2023-04-24T05:26:09;14.00;90.30
33827;DHT22;20128;45.582;5.298;2023-04-24T05:28:36;14.00;90.50
33827;DHT22;20128;45.582;5.298;2023-04-24T05:31:02;14.00;90.50
33827;DHT22;20128;45.582;5.298;2023-04-24T05:33:28;14.10;90.50
33827;DHT22;20128;45.582;5.298;2023-04-24T05:35:54;14.10;90.60
33827;DHT22;20128;45.582;5.298;2023-04-24T05:38:19;14.10;90.60
33827;DHT22;20128;45.582;5.298;2023-04-24T05:40:46;14.10;90.30
33827;DHT22;20128;45.582;5.298;2023-04-24T05:43:12;14.10;90.30
33827;DHT22;20128;45.582;5.298;2023-04-24T05:45:39;14.10;90.40
33827;DHT22;20128;45.582;5.298;2023-04-24T05:48:04;14.10;90.50
33827;DHT22;20128;45.582;5.298;2023-04-24T05:50:31;14.10;90.30
33827;DHT22;20128;45.582;5.298;2023-04-24T05:52:56;14.00;90.10
33827;DHT22;20128;45.582;5.298;2023-04-24T05:55:27;14.00;90.10
33827;DHT22;20128;45.582;5.298;2023-04-24T05:57:53;14.00;90.50
33827;DHT22;20128;45.582;5.298;2023-04-24T06:00:19;14.00;90.60
33827;DHT22;20128;45.582;5.298;2023-04-24T06:02:45;14.10;90.80
33827;DHT22;20128;45.582;5.298;2023-04-24T06:05:11;14.20;90.70
33827;DHT22;20128;45.582;5.298;2023-04-24T06:07:38;14.30;90.60
33827;DHT22;20128;45.582;5.298;2023-04-24T06:10:04;14.30;90.30
33827;DHT22;20128;45.582;5.298;2023-04-24T06:12:30;14.30;90.00
33827;DHT22;20128;45.582;5.298;2023-04-24T06:14:56;14.30;89.80
33827;DHT22;20128;45.582;5.298;2023-04-24T06:17:22;14.20;90.00
33827;DHT22;20128;45.582;5.298;2023-04-24T06:19:47;14.30;90.00
33827;DHT22;20128;45.582;5.298;2023-04-24T06:22:13;14.40;89.80
33827;DHT22;20128;45.582;5.298;2023-04-24T06:24:40;14.40;89.40
33827;DHT22;20128;45.582;5.298;2023-04-24T06:27:06;14.50;89.30
33827;DHT22;20128;45.582;5.298;2023-04-24T06:29:33;14.50;89.10
33827;DHT22;20128;45.582;5.298;2023-04-24T06:31:58;14.50;88.70
33827;DHT22;20128;45.582;5.298;2023-04-24T06:34:24;14.50;88.40
33827;DHT22;20128;45.582;5.298;2023-04-24T06:36:50;14.50;88.30
33827;DHT22;20128;45.582;5.298;2023-04-24T06:39:16;14.60;89.10
33827;DHT22;20128;45.582;5.298;2023-04-24T06:41:41;14.60;88.40
33827;DHT22;20128;45.582;5.298;2023-04-24T06:44:07;14.70;87.80
33827;DHT22;20128;45.582;5.298;2023-04-24T06:46:33;14.70;87.60
33827;DHT22;20128;45.582;5.298;2023-04-24T06:48:59;14.70;86.70
33827;DHT22;20128;45.582;5.298;2023-04-24T06:51:26;14.80;86.70
33827;DHT22;20128;45.582;5.298;2023-04-24T06:53:53;14.70;85.00
33827;DHT22;20128;45.582;5.298;2023-04-24T06:56:19;14.60;86.00
33827;DHT22;20128;45.582;5.298;2023-04-24T06:58:45;14.60;86.30
33827;DHT22;20128;45.582;5.298;2023-04-24T07:01:11;14.60;86.70
33827;DHT22;20128;45.582;5.298;2023-04-24T07:03:37;14.60;84.90
33827;DHT22;20128;45.582;5.298;2023-04-24T07:06:04;14.50;85.60
33827;DHT22;20128;45.582;5.298;2023-04-24T07:08:29;14.50;85.30
33827;DHT22;20128;45.582;5.298;2023-04-24T07:10:58;14.50;85.30
33827;DHT22;20128;45.582;5.298;2023-04-24T07:13:24;14.50;85.30
33827;DHT22;20128;45.582;5.298;2023-04-24T07:15:50;14.60;84.80
33827;DHT22;20128;45.582;5.298;2023-04-24T07:18:18;14.60;84.90
33827;DHT22;20128;45.582;5.298;2023-04-24T07:20:44;14.60;85.00
33827;DHT22;20128;45.582;5.298;2023-04-24T07:23:10;14.60;84.60
33827;DHT22;20128;45.582;5.298;2023-04-24T07:25:36;14.60;84.20
33827;DHT22;20128;45.582;5.298;2023-04-24T07:28:01;14.60;83.90
33827;DHT22;20128;45.582;5.298;2023-04-24T07:30:27;14.60;83.20
33827;DHT22;20128;45.582;5.298;2023-04-24T07:32:54;14.60;82.70
33827;DHT22;20128;45.582;5.298;2023-04-24T07:35:21;14.60;83.10
33827;DHT22;20128;45.582;5.298;2023-04-24T07:37:46;14.70;82.20
33827;DHT22;20128;45.582;5.298;2023-04-24T07:40:15;14.70;81.50
33827;DHT22;20128;45.582;5.298;2023-04-24T07:42:41;14.70;81.00
33827;DHT22;20128;45.582;5.298;2023-04-24T07:45:07;14.70;80.80
33827;DHT22;20128;45.582;5.298;2023-04-24T07:47:33;14.60;79.40
33827;DHT22;20128;45.582;5.298;2023-04-24T07:49:59;14.60;79.80
33827;DHT22;20128;45.582;5.298;2023-04-24T07:52:25;14.50;77.70
33827;DHT22;20128;45.582;5.298;2023-04-24T07:54:50;14.50;78.10
33827;DHT22;20128;45.582;5.298;2023-04-24T07:57:18;14.50;79.50
33827;DHT22;20128;45.582;5.298;2023-04-24T07:59:44;14.60;80.10
33827;DHT22;20128;45.582;5.298;2023-04-24T08:02:09;14.70;80.20
33827;DHT22;20128;45.582;5.298;2023-04-24T08:04:35;14.80;78.00
33827;DHT22;20128;45.582;5.298;2023-04-24T08:07:00;14.90;78.40
33827;DHT22;20128;45.582;5.298;2023-04-24T08:09:26;15.00;76.70
33827;DHT22;20128;45.582;5.298;2023-04-24T08:11:52;15.00;76.60
33827;DHT22;20128;45.582;5.298;2023-04-24T08:14:18;15.10;75.70
33827;DHT22;20128;45.582;5.298;2023-04-24T08:16:44;15.20;76.60
33827;DHT22;20128;45.582;5.298;2023-04-24T08:19:10;15.30;75.90
33827;DHT22;20128;45.582;5.298;2023-04-24T08:21:35;15.30;75.20
33827;DHT22;20128;45.582;5.298;2023-04-24T08:24:01;15.30;74.80
33827;DHT22;20128;45.582;5.298;2023-04-24T08:26:30;15.30;74.50
33827;DHT22;20128;45.582;5.298;2023-04-24T08:28:56;15.40;74.50
33827;DHT22;20128;45.582;5.298;2023-04-24T08:31:22;15.50;74.70
33827;DHT22;20128;45.582;5.298;2023-04-24T08:33:48;15.60;71.20
33827;DHT22;20128;45.582;5.298;2023-04-24T08:36:14;15.70;72.80
33827;DHT22;20128;45.582;5.298;2023-04-24T08:38:39;15.80;73.10
33827;DHT22;20128;45.582;5.298;2023-04-24T08:41:05;15.90;73.20
33827;DHT22;20128;45.582;5.298;2023-04-24T08:43:33;15.80;71.50
33827;DHT22;20128;45.582;5.298;2023-04-24T08:46:03;15.80;70.10
33827;DHT22;20128;45.582;5.298;2023-04-24T08:48:29;15.80;71.40
33827;DHT22;20128;45.582;5.298;2023-04-24T08:50:56;15.70;70.20
33827;DHT22;20128;45.582;5.298;2023-04-24T08:53:22;15.70;71.20
33827;DHT22;20128;45.582;5.298;2023-04-24T08:55:50;15.60;70.90
33827;DHT22;20128;45.582;5.298;2023-04-24T08:58:17;15.60;71.40
33827;DHT22;20128;45.582;5.298;2023-04-24T09:00:43;15.50;71.00
33827;DHT22;20128;45.582;5.298;2023-04-24T09:03:16;15.50;71.30
33827;DHT22;20128;45.582;5.298;2023-04-24T09:05:47;15.60;70.30
33827;DHT22;20128;45.582;5.298;2023-04-24T09:08:16;15.80;70.20
33827;DHT22;20128;45.582;5.298;2023-04-24T09:10:43;15.90;69.00
33827;DHT22;20128;45.582;5.298;2023-04-24T09:13:08;16.00;67.70
33827;DHT22;20128;45.582;5.298;2023-04-24T09:15:41;16.00;68.50
33827;DHT22;20128;45.582;5.298;2023-04-24T09:18:07;16.00;67.50
33827;DHT22;20128;45.582;5.298;2023-04-24T09:20:33;16.00;68.20
33827;DHT22;20128;45.582;5.298;2023-04-24T09:23:01;16.00;68.00
33827;DHT22;20128;45.582;5.298;2023-04-24T09:25:35;16.00;67.10
33827;DHT22;20128;45.582;5.298;2023-04-24T09:28:04;16.10;67.30
33827;DHT22;20128;45.582;5.298;2023-04-24T09:30:32;16.20;65.10
33827;DHT22;20128;45.582;5.298;2023-04-24T09:33:14;16.30;64.80
33827;DHT22;20128;45.582;5.298;2023-04-24T09:35:50;16.40;65.30
33827;DHT22;20128;45.582;5.298;2023-04-24T09:38:16;16.50;64.50
33827;DHT22;20128;45.582;5.298;2023-04-24T09:40:42;16.50;64.10
33827;DHT22;20128;45.582;5.298;2023-04-24T09:43:10;16.40;62.90
33827;DHT22;20128;45.582;5.298;2023-04-24T09:45:38;16.40;62.70
33827;DHT22;20128;45.582;5.298;2023-04-24T09:48:04;16.40;62.70
33827;DHT22;20128;45.582;5.298;2023-04-24T09:50:32;16.40;63.40
33827;DHT22;20128;45.582;5.298;2023-04-24T09:52:59;16.50;59.90
33827;DHT22;20128;45.582;5.298;2023-04-24T09:55:26;16.40;59.60
33827;DHT22;20128;45.582;5.298;2023-04-24T09:57:56;16.40;61.10
33827;DHT22;20128;45.582;5.298;2023-04-24T10:00:29;16.30;62.00
33827;DHT22;20128;45.582;5.298;2023-04-24T10:03:01;16.30;62.50
33827;DHT22;20128;45.582;5.298;2023-04-24T10:05:32;16.40;61.60
33827;DHT22;20128;45.582;5.298;2023-04-24T10:08:01;16.30;62.10
33827;DHT22;20128;45.582;5.298;2023-04-24T10:10:28;16.40;62.00
33827;DHT22;20128;45.582;5.298;2023-04-24T10:12:54;16.30;59.00
33827;DHT22;20128;45.582;5.298;2023-04-24T10:15:20;16.30;60.20
33827;DHT22;20128;45.582;5.298;2023-04-24T10:17:50;16.30;60.90
33827;DHT22;20128;45.582;5.298;2023-04-24T10:20:24;16.30;61.80
33827;DHT22;20128;45.582;5.298;2023-04-24T10:22:51;16.50;62.10
33827;DHT22;20128;45.582;5.298;2023-04-24T10:25:22;16.60;60.60
33827;DHT22;20128;45.582;5.298;2023-04-24T10:27:49;16.50;60.00
33827;DHT22;20128;45.582;5.298;2023-04-24T10:30:16;16.60;60.30
33827;DHT22;20128;45.582;5.298;2023-04-24T10:32:41;16.70;61.30
33827;DHT22;20128;45.582;5.298;2023-04-24T10:35:08;17.00;62.10
33827;DHT22;20128;45.582;5.298;2023-04-24T10:37:38;17.20;58.80
33827;DHT22;20128;45.582;5.298;2023-04-24T10:40:06;17.40;57.70
33827;DHT22;20128;45.582;5.298;2023-04-24T10:42:33;17.40;56.70
33827;DHT22;20128;45.582;5.298;2023-04-24T10:44:59;17.40;58.00
33827;DHT22;20128;45.582;5.298;2023-04-24T10:47:27;17.60;58.70
33827;DHT22;20128;45.582;5.298;2023-04-24T10:49:53;17.70;55.90
33827;DHT22;20128;45.582;5.298;2023-04-24T10:52:19;17.70;54.50
33827;DHT22;20128;45.582;5.298;2023-04-24T10:54:46;17.70;56.10
33827;DHT22;20128;45.582;5.298;2023-04-24T10:59:49;17.80;58.10
33827;DHT22;20128;45.582;5.298;2023-04-24T11:02:15;17.80;58.20
33827;DHT22;20128;45.582;5.298;2023-04-24T11:04:41;17.70;56.50
33827;DHT22;20128;45.582;5.298;2023-04-24T11:07:09;17.60;57.50
33827;DHT22;20128;45.582;5.298;2023-04-24T11:09:35;17.50;58.20
33827;DHT22;20128;45.582;5.298;2023-04-24T11:12:11;17.50;58.20
33827;DHT22;20128;45.582;5.298;2023-04-24T11:20:10;18.00;55.00
33827;DHT22;20128;45.582;5.298;2023-04-24T11:22:38;18.20;56.30
33827;DHT22;20128;45.582;5.298;2023-04-24T11:25:06;18.30;57.10
33827;DHT22;20128;45.582;5.298;2023-04-24T11:27:39;18.50;55.60
33827;DHT22;20128;45.582;5.298;2023-04-24T11:30:05;18.60;53.10
33827;DHT22;20128;45.582;5.298;2023-04-24T11:32:39;18.70;53.30
33827;DHT22;20128;45.582;5.298;2023-04-24T11:35:14;18.80;54.50
33827;DHT22;20128;45.582;5.298;2023-04-24T11:37:42;18.90;54.50
33827;DHT22;20128;45.582;5.298;2023-04-24T11:40:12;19.00;54.40
33827;DHT22;20128;45.582;5.298;2023-04-24T11:42:43;19.00;54.30
33827;DHT22;20128;45.582;5.298;2023-04-24T11:45:11;19.10;53.70
33827;DHT22;20128;45.582;5.298;2023-04-24T11:47:37;19.20;52.70
33827;DHT22;20128;45.582;5.298;2023-04-24T11:50:04;19.20;53.80
33827;DHT22;20128;45.582;5.298;2023-04-24T11:52:31;19.30;52.80
33827;DHT22;20128;45.582;5.298;2023-04-24T11:54:57;19.30;53.50
33827;DHT22;20128;45.582;5.298;2023-04-24T11:57:24;19.00;52.40
33827;DHT22;20128;45.582;5.298;2023-04-24T11:59:53;18.90;52.30
33827;DHT22;20128;45.582;5.298;2023-04-24T12:02:26;18.70;52.50
33827;DHT22;20128;45.582;5.298;2023-04-24T12:04:53;18.80;53.50
33827;DHT22;20128;45.582;5.298;2023-04-24T12:07:19;18.80;53.80
33827;DHT22;20128;45.582;5.298;2023-04-24T12:09:49;18.80;52.50
33827;DHT22;20128;45.582;5.298;2023-04-24T12:12:17;18.90;51.50
33827;DHT22;20128;45.582;5.298;2023-04-24T12:17:09;18.90;51.60
33827;DHT22;20128;45.582;5.298;2023-04-24T12:19:35;18.90;52.10
33827;DHT22;20128;45.582;5.298;2023-04-24T12:22:05;19.00;51.90
33827;DHT22;20128;45.582;5.298;2023-04-24T12:24:31;19.10;51.60
33827;DHT22;20128;45.582;5.298;2023-04-24T12:26:57;19.00;49.40
33827;DHT22;20128;45.582;5.298;2023-04-24T12:29:24;19.00;48.90
33827;DHT22;20128;45.582;5.298;2023-04-24T12:31:54;19.00;49.70
33827;DHT22;20128;45.582;5.298;2023-04-24T12:34:24;19.00;50.60
33827;DHT22;20128;45.582;5.298;2023-04-24T12:36:51;19.00;49.60
33827;DHT22;20128;45.582;5.298;2023-04-24T12:39:20;19.00;50.20
33827;DHT22;20128;45.582;5.298;2023-04-24T12:41:58;19.00;49.70
33827;DHT22;20128;45.582;5.298;2023-04-24T12:44:32;19.10;49.40
33827;DHT22;20128;45.582;5.298;2023-04-24T12:47:00;19.10;50.20
33827;DHT22;20128;45.582;5.298;2023-04-24T12:49:26;19.00;51.30
33827;DHT22;20128;45.582;5.298;2023-04-24T12:51:52;19.10;50.50
33827;DHT22;20128;45.582;5.298;2023-04-24T12:54:18;19.20;48.70
33827;DHT22;20128;45.582;5.298;2023-04-24T12:56:44;19.20;49.60
33827;DHT22;20128;45.582;5.298;2023-04-24T12:59:09;19.10;50.20
33827;DHT22;20128;45.582;5.298;2023-04-24T13:01:35;19.10;50.20
33827;DHT22;20128;45.582;5.298;2023-04-24T13:04:01;19.10;50.80
33827;DHT22;20128;45.582;5.298;2023-04-24T13:06:26;19.20;50.40
33827;DHT22;20128;45.582;5.298;2023-04-24T13:08:52;19.30;50.20
33827;DHT22;20128;45.582;5.298;2023-04-24T13:11:20;19.30;48.90
33827;DHT22;20128;45.582;5.298;2023-04-24T13:13:47;19.30;49.40
33827;DHT22;20128;45.582;5.298;2023-04-24T13:16:12;19.30;49.50
33827;DHT22;20128;45.582;5.298;2023-04-24T13:18:38;19.50;48.50
33827;DHT22;20128;45.582;5.298;2023-04-24T13:21:04;19.50;49.40
33827;DHT22;20128;45.582;5.298;2023-04-24T13:23:29;19.50;49.80
33827;DHT22;20128;45.582;5.298;2023-04-24T13:25:55;19.50;47.50
33827;DHT22;20128;45.582;5.298;2023-04-24T13:28:24;19.50;48.40
33827;DHT22;20128;45.582;5.298;2023-04-24T13:30:50;19.50;48.70
33827;DHT22;20128;45.582;5.298;2023-04-24T13:33:16;19.60;48.30
33827;DHT22;20128;45.582;5.298;2023-04-24T13:35:42;19.50;48.30
33827;DHT22;20128;45.582;5.298;2023-04-24T13:38:07;19.50;48.80
33827;DHT22;20128;45.582;5.298;2023-04-24T13:40:33;19.60;48.60
33827;DHT22;20128;45.582;5.298;2023-04-24T13:42:59;19.60;48.40
33827;DHT22;20128;45.582;5.298;2023-04-24T13:45:26;19.70;48.40
33827;DHT22;20128;45.582;5.298;2023-04-24T13:47:52;19.80;49.20
33827;DHT22;20128;45.582;5.298;2023-04-24T13:50:19;20.00;50.00
33827;DHT22;20128;45.582;5.298;2023-04-24T13:52:45;20.20;50.00
33827;DHT22;20128;45.582;5.298;2023-04-24T13:55:10;20.30;48.30
33827;DHT22;20128;45.582;5.298;2023-04-24T13:57:36;20.30;47.60
33827;DHT22;20128;45.582;5.298;2023-04-24T14:00:02;20.30;48.40
33827;DHT22;20128;45.582;5.298;2023-04-24T14:02:29;20.30;48.40
33827;DHT22;20128;45.582;5.298;2023-04-24T14:04:55;20.30;47.40
33827;DHT22;20128;45.582;5.298;2023-04-24T14:07:21;20.40;48.00
33827;DHT22;20128;45.582;5.298;2023-04-24T14:09:46;20.40;46.60
33827;DHT22;20128;45.582;5.298;2023-04-24T14:12:12;20.40;47.10
33827;DHT22;20128;45.582;5.298;2023-04-24T14:14:39;20.60;47.20
33827;DHT22;20128;45.582;5.298;2023-04-24T14:17:05;20.60;47.20
33827;DHT22;20128;45.582;5.298;2023-04-24T14:19:31;20.70;46.70
33827;DHT22;20128;45.582;5.298;2023-04-24T14:21:56;20.80;46.70
33827;DHT22;20128;45.582;5.298;2023-04-24T14:24:23;20.70;46.40
33827;DHT22;20128;45.582;5.298;2023-04-24T14:26:49;20.90;46.00
33827;DHT22;20128;45.582;5.298;2023-04-24T14:29:15;21.00;46.40
33827;DHT22;20128;45.582;5.298;2023-04-24T14:31:42;21.00;45.70
33827;DHT22;20128;45.582;5.298;2023-04-24T14:34:08;21.00;46.00
33827;DHT22;20128;45.582;5.298;2023-04-24T14:36:34;20.90;46.40
33827;DHT22;20128;45.582;5.298;2023-04-24T14:39:00;20.80;45.60
33827;DHT22;20128;45.582;5.298;2023-04-24T14:41:30;20.90;45.80
33827;DHT22;20128;45.582;5.298;2023-04-24T14:43:56;20.90;46.00
33827;DHT22;20128;45.582;5.298;2023-04-24T14:46:22;20.90;46.30
33827;DHT22;20128;45.582;5.298;2023-04-24T14:48:48;20.90;46.50
33827;DHT22;20128;45.582;5.298;2023-04-24T14:51:13;21.00;46.00
33827;DHT22;20128;45.582;5.298;2023-04-24T14:53:39;21.10;45.00
33827;DHT22;20128;45.582;5.298;2023-04-24T14:56:05;21.20;45.20
33827;DHT22;20128;45.582;5.298;2023-04-24T14:58:30;21.30;45.40
33827;DHT22;20128;45.582;5.298;2023-04-24T15:00:56;21.40;45.50
33827;DHT22;20128;45.582;5.298;2023-04-24T15:03:22;21.50;44.10
33827;DHT22;20128;45.582;5.298;2023-04-24T15:05:48;21.60;43.80
33827;DHT22;20128;45.582;5.298;2023-04-24T15:08:14;21.70;43.30
33827;DHT22;20128;45.582;5.298;2023-04-24T15:10:40;21.70;43.00
33827;DHT22;20128;45.582;5.298;2023-04-24T15:13:05;21.80;43.30
33827;DHT22;20128;45.582;5.298;2023-04-24T15:15:31;21.80;41.80
33827;DHT22;20128;45.582;5.298;2023-04-24T15:17:56;21.90;43.00
33827;DHT22;20128;45.582;5.298;2023-04-24T15:20:22;21.90;43.10
33827;DHT22;20128;45.582;5.298;2023-04-24T15:22:48;22.00;43.40
33827;DHT22;20128;45.582;5.298;2023-04-24T15:25:13;21.90;43.10
33827;DHT22;20128;45.582;5.298;2023-04-24T15:27:43;21.80;42.90
33827;DHT22;20128;45.582;5.298;2023-04-24T15:30:10;21.70;42.80
33827;DHT22;20128;45.582;5.298;2023-04-24T15:32:36;21.60;42.50
33827;DHT22;20128;45.582;5.298;2023-04-24T15:35:02;21.70;41.90
33827;DHT22;20128;45.582;5.298;2023-04-24T15:37:28;21.50;42.10